sensor_id;sensor_type;location;lat;lon;timestamp;pressure;altitude;pressure_sealevel;temperature;humidity
17209;BME280;8720;48.488;9.202;2023-05-01T00:00:36;96931.41;;;16.68;43.57
17209;BME280;8720;48.488;9.202;2023-05-01T00:03:06;96922.75;;;16.64;43.53
17209;BME280;8720;48.488;9.202;2023-05-01T00:05:34;96919.34;;;16.62;43.83
17209;BME280;8720;48.488;9.202;2023-05-01T00:08:01;96908.84;;;16.61;43.87
17209;BME280;8720;48.488;9.202;2023-05-01T00:10:28;96911.66;;;16.58;44.12
17209;BME280;8720;48.488;9.202;2023-05-01T00:12:56;96901.22;;;16.55;43.86
17209;BME280;8720;48.488;9.202;2023-05-01T00:15:23;96898.16;;;16.45;44.08
17209;BME280;8720;48.488;9.202;2023-05-01T00:17:52;96882.06;;;16.32;43.92
17209;BME280;8720;48.488;9.202;2023-05-01T00:20:21;96899.19;;;16.43;44.34
17209;BME280;8720;48.488;9.202;2023-05-01T00:22:48;96891.47;;;16.38;44.53
17209;BME280;8720;48.488;9.202;2023-05-01T00:25:16;96893.34;;;16.36;44.34
17209;BME280;8720;48.488;9.202;2023-05-01T00:27:43;96889.06;;;16.33;44.49
17209;BME280;8720;48.488;9.202;2023-05-01T00:30:11;96878.78;;;16.27;44.62
17209;BME280;8720;48.488;9.202;2023-05-01T00:32:39;96889.28;;;16.29;44.74
17209;BME280;8720;48.488;9.202;2023-05-01T00:35:07;96887.56;;;16.28;44.93
17209;BME280;8720;48.488;9.202;2023-05-01T00:37:35;96885.00;;;16.26;44.93
17209;BME280;8720;48.488;9.202;2023-05-01T00:40:04;96885.00;;;16.26;44.47
17209;BME280;8720;48.488;9.202;2023-05-01T00:42:34;96884.16;;;16.26;44.70
17209;BME280;8720;48.488;9.202;2023-05-01T00:45:02;96881.50;;;16.26;44.77
17209;BME280;8720;48.488;9.202;2023-05-01T00:47:30;96878.03;;;16.25;44.83
17209;BME280;8720;48.488;9.202;2023-05-01T00:49:59;96877.09;;;16.26;44.88
17209;BME280;8720;48.488;9.202;2023-05-01T00:52:26;96878.72;;;16.29;45.05
17209;BME280;8720;48.488;9.202;2023-05-01T00:54:56;96871.81;;;16.26;44.80
17209;BME280;8720;48.488;9.202;2023-05-01T00:57:24;96870.03;;;16.27;44.99
17209;BME280;8720;48.488;9.202;2023-05-01T00:59:51;96870.03;;;16.27;45.06
17209;BME280;8720;48.488;9.202;2023-05-01T01:02:19;96863.09;;;16.24;45.21
17209;BME280;8720;48.488;9.202;2023-05-01T01:04:47;96867.38;;;16.27;45.21
17209;BME280;8720;48.488;9.202;2023-05-01T01:07:21;96862.03;;;16.28;45.32
17209;BME280;8720;48.488;9.202;2023-05-01T01:10:06;96854.50;;;16.21;45.27
17209;BME280;8720;48.488;9.202;2023-05-01T01:12:46;96862.13;;;16.27;45.46
17209;BME280;8720;48.488;9.202;2023-05-01T01:15:29;96855.09;;;16.26;45.38
17209;BME280;8720;48.488;9.202;2023-05-01T01:18:10;96855.97;;;16.26;45.34
17209;BME280;8720;48.488;9.202;2023-05-01T01:20:45;96844.53;;;16.26;45.39
17209;BME280;8720;48.488;9.202;2023-05-01T01:27:31;96848.44;;;16.19;45.33
17209;BME280;8720;48.488;9.202;2023-05-01T01:30:36;96844.16;;;16.16;45.32
17209;BME280;8720;48.488;9.202;2023-05-01T01:34:03;96840.81;;;16.13;45.26
17209;BME280;8720;48.488;9.202;2023-05-01T01:36:42;96839.16;;;16.10;45.41
17209;BME280;8720;48.488;9.202;2023-05-01T01:39:26;96834.91;;;16.08;45.27
17209;BME280;8720;48.488;9.202;2023-05-01T01:41:57;96833.25;;;16.05;45.49
17209;BME280;8720;48.488;9.202;2023-05-01T01:44:33;96833.25;;;16.05;45.41
17209;BME280;8720;48.488;9.202;2023-05-01T01:47:07;96833.19;;;16.07;45.26
17209;BME280;8720;48.488;9.202;2023-05-01T01:49:44;96830.41;;;16.10;45.25
17209;BME280;8720;48.488;9.202;2023-05-01T01:52:15;96829.38;;;16.12;45.58
17209;BME280;8720;48.488;9.202;2023-05-01T01:54:50;96823.97;;;16.15;45.15
17209;BME280;8720;48.488;9.202;2023-05-01T01:57:20;96827.22;;;16.20;45.34
17209;BME280;8720;48.488;9.202;2023-05-01T01:59:50;96828.00;;;16.22;45.35
17209;BME280;8720;48.488;9.202;2023-05-01T02:02:20;96818.44;;;16.20;45.10
17209;BME280;8720;48.488;9.202;2023-05-01T02:04:51;96827.00;;;16.25;45.17
17209;BME280;8720;48.488;9.202;2023-05-01T02:07:23;96819.19;;;16.23;45.13
17209;BME280;8720;48.488;9.202;2023-05-01T02:09:53;96817.53;;;16.21;45.16
17209;BME280;8720;48.488;9.202;2023-05-01T02:12:23;96813.25;;;16.18;45.42
17209;BME280;8720;48.488;9.202;2023-05-01T02:14:55;96814.25;;;16.16;45.25
17209;BME280;8720;48.488;9.202;2023-05-01T02:17:24;96806.31;;;16.16;45.53
17209;BME280;8720;48.488;9.202;2023-05-01T02:19:55;96801.91;;;16.16;45.17
17209;BME280;8720;48.488;9.202;2023-05-01T02:22:25;96808.75;;;16.20;45.57
17209;BME280;8720;48.488;9.202;2023-05-01T02:24:55;96811.25;;;16.23;45.42
17209;BME280;8720;48.488;9.202;2023-05-01T02:27:31;96803.25;;;16.25;45.47
17209;BME280;8720;48.488;9.202;2023-05-01T02:29:58;96801.53;;;16.24;45.44
17209;BME280;8720;48.488;9.202;2023-05-01T02:32:26;96812.03;;;16.25;45.26
17209;BME280;8720;48.488;9.202;2023-05-01T02:34:56;96799.75;;;16.24;45.53
17209;BME280;8720;48.488;9.202;2023-05-01T02:37:25;96807.59;;;16.26;45.54
17209;BME280;8720;48.488;9.202;2023-05-01T02:39:56;96811.09;;;16.26;45.77
17209;BME280;8720;48.488;9.202;2023-05-01T02:42:24;96804.13;;;16.25;45.84
17209;BME280;8720;48.488;9.202;2023-05-01T02:44:58;96801.47;;;16.25;45.95
17209;BME280;8720;48.488;9.202;2023-05-01T02:47:31;96799.75;;;16.24;45.76
17209;BME280;8720;48.488;9.202;2023-05-01T02:50:02;96805.03;;;16.24;45.92
17209;BME280;8720;48.488;9.202;2023-05-01T02:52:31;96801.53;;;16.24;46.07
17209;BME280;8720;48.488;9.202;2023-05-01T02:55:17;96795.41;;;16.23;46.02
17209;BME280;8720;48.488;9.202;2023-05-01T02:57:45;96802.41;;;16.24;45.90
17209;BME280;8720;48.488;9.202;2023-05-01T03:00:13;96778.25;;;16.15;46.04
17209;BME280;8720;48.488;9.202;2023-05-01T03:02:40;96792.69;;;16.25;46.20
17209;BME280;8720;48.488;9.202;2023-05-01T03:05:10;96791.06;;;16.22;46.20
17209;BME280;8720;48.488;9.202;2023-05-01T03:07:37;96795.25;;;16.26;46.34
17209;BME280;8720;48.488;9.202;2023-05-01T03:10:06;96787.41;;;16.25;46.40
17209;BME280;8720;48.488;9.202;2023-05-01T03:12:33;96797.97;;;16.25;46.31
17209;BME280;8720;48.488;9.202;2023-05-01T03:15:04;96788.34;;;16.24;46.53
17209;BME280;8720;48.488;9.202;2023-05-01T03:17:32;96791.84;;;16.24;46.34
17209;BME280;8720;48.488;9.202;2023-05-01T03:20:00;96792.78;;;16.23;46.59
17209;BME280;8720;48.488;9.202;2023-05-01T03:22:29;96792.78;;;16.23;46.57
17209;BME280;8720;48.488;9.202;2023-05-01T03:24:58;96792.84;;;16.22;46.34
17209;BME280;8720;48.488;9.202;2023-05-01T03:27:25;96786.72;;;16.21;46.37
17209;BME280;8720;48.488;9.202;2023-05-01T03:29:53;96787.63;;;16.20;46.63
17209;BME280;8720;48.488;9.202;2023-05-01T03:32:20;96785.84;;;16.21;46.44
17209;BME280;8720;48.488;9.202;2023-05-01T03:34:49;96791.06;;;16.22;46.82
17209;BME280;8720;48.488;9.202;2023-05-01T03:37:17;96789.38;;;16.21;46.97
17209;BME280;8720;48.488;9.202;2023-05-01T03:39:46;96782.34;;;16.20;46.99
17209;BME280;8720;48.488;9.202;2023-05-01T03:42:32;96786.00;;;16.18;46.86
17209;BME280;8720;48.488;9.202;2023-05-01T03:45:08;96775.44;;;16.18;46.90
17209;BME280;8720;48.488;9.202;2023-05-01T03:47:36;96781.56;;;16.18;46.88
17209;BME280;8720;48.488;9.202;2023-05-01T03:50:06;96778.94;;;16.18;47.12
17209;BME280;8720;48.488;9.202;2023-05-01T03:52:36;96776.28;;;16.18;47.12
17209;BME280;8720;48.488;9.202;2023-05-01T03:55:06;96781.56;;;16.18;47.07
17209;BME280;8720;48.488;9.202;2023-05-01T03:57:41;96775.53;;;16.16;47.23
17209;BME280;8720;48.488;9.202;2023-05-01T04:00:11;96778.16;;;16.16;47.18
17209;BME280;8720;48.488;9.202;2023-05-01T04:02:41;96758.38;;;16.08;47.34
17209;BME280;8720;48.488;9.202;2023-05-01T04:05:12;96767.78;;;16.13;47.40
17209;BME280;8720;48.488;9.202;2023-05-01T04:07:44;96781.09;;;16.10;47.46
17209;BME280;8720;48.488;9.202;2023-05-01T04:10:13;96774.13;;;16.09;47.58
17209;BME280;8720;48.488;9.202;2023-05-01T04:12:49;96775.03;;;16.08;47.72
17209;BME280;8720;48.488;9.202;2023-05-01T04:15:17;96778.72;;;16.06;47.68
17209;BME280;8720;48.488;9.202;2023-05-01T04:17:44;96772.56;;;16.05;47.75
17209;BME280;8720;48.488;9.202;2023-05-01T04:20:12;96777.94;;;16.04;47.95
17209;BME280;8720;48.488;9.202;2023-05-01T04:22:42;96776.13;;;16.04;48.19
17209;BME280;8720;48.488;9.202;2023-05-01T04:25:09;96774.44;;;16.03;48.16
17209;BME280;8720;48.488;9.202;2023-05-01T04:27:39;96781.41;;;16.04;48.27
17209;BME280;8720;48.488;9.202;2023-05-01T04:30:08;96776.13;;;16.04;48.35
17209;BME280;8720;48.488;9.202;2023-05-01T04:32:35;96777.06;;;16.03;48.38
17209;BME280;8720;48.488;9.202;2023-05-01T04:35:03;96787.53;;;16.05;48.53
17209;BME280;8720;48.488;9.202;2023-05-01T04:37:31;96785.84;;;16.04;48.61
17209;BME280;8720;48.488;9.202;2023-05-01T04:40:00;96789.41;;;16.03;48.92
17209;BME280;8720;48.488;9.202;2023-05-01T04:42:30;96783.81;;;16.09;49.75
17209;BME280;8720;48.488;9.202;2023-05-01T04:44:59;96786.53;;;16.07;49.31
17209;BME280;8720;48.488;9.202;2023-05-01T04:47:32;96785.84;;;16.04;49.44
17209;BME280;8720;48.488;9.202;2023-05-01T04:50:00;96784.13;;;16.03;49.11
17209;BME280;8720;48.488;9.202;2023-05-01T04:52:30;96785.97;;;16.01;49.32
17209;BME280;8720;48.488;9.202;2023-05-01T04:54:59;96786.06;;;15.99;49.59
17209;BME280;8720;48.488;9.202;2023-05-01T04:57:29;96781.72;;;15.98;49.81
17209;BME280;8720;48.488;9.202;2023-05-01T04:59:59;96787.00;;;15.98;49.87
17209;BME280;8720;48.488;9.202;2023-05-01T05:02:26;96780.00;;;15.97;49.88
17209;BME280;8720;48.488;9.202;2023-05-01T05:04:53;96785.28;;;15.97;49.74
17209;BME280;8720;48.488;9.202;2023-05-01T05:07:21;96790.56;;;15.97;49.76
17209;BME280;8720;48.488;9.202;2023-05-01T05:10:09;96786.13;;;15.98;49.89
17209;BME280;8720;48.488;9.202;2023-05-01T05:12:38;96789.84;;;15.94;50.12
17209;BME280;8720;48.488;9.202;2023-05-01T05:15:08;96790.56;;;15.97;50.09
17209;BME280;8720;48.488;9.202;2023-05-01T05:17:36;96794.91;;;15.98;50.32
17209;BME280;8720;48.488;9.202;2023-05-01T05:20:04;96793.97;;;15.99;50.35
17209;BME280;8720;48.488;9.202;2023-05-01T05:22:35;96799.16;;;16.01;50.14
17209;BME280;8720;48.488;9.202;2023-05-01T05:25:23;96797.31;;;16.03;50.16
17209;BME280;8720;48.488;9.202;2023-05-01T05:27:51;96797.22;;;16.04;50.18
17209;BME280;8720;48.488;9.202;2023-05-01T05:30:20;96797.09;;;16.07;50.38
17209;BME280;8720;48.488;9.202;2023-05-01T05:32:47;96791.66;;;16.10;50.44
17209;BME280;8720;48.488;9.202;2023-05-01T05:35:15;96794.25;;;16.12;50.38
17209;BME280;8720;48.488;9.202;2023-05-01T05:37:43;96797.66;;;16.14;50.28
17209;BME280;8720;48.488;9.202;2023-05-01T05:40:11;96791.44;;;16.15;50.37
17209;BME280;8720;48.488;9.202;2023-05-01T05:42:50;96796.63;;;16.16;50.54
17209;BME280;8720;48.488;9.202;2023-05-01T05:45:17;96795.63;;;16.19;50.51
17209;BME280;8720;48.488;9.202;2023-05-01T05:47:46;96796.41;;;16.21;50.44
17209;BME280;8720;48.488;9.202;2023-05-01T05:50:14;96802.41;;;16.24;50.61
17209;BME280;8720;48.488;9.202;2023-05-01T05:52:43;96804.94;;;16.26;50.34
17209;BME280;8720;48.488;9.202;2023-05-01T05:55:12;96795.16;;;16.28;50.58
17209;BME280;8720;48.488;9.202;2023-05-01T05:57:44;96794.25;;;16.29;50.44
17209;BME280;8720;48.488;9.202;2023-05-01T06:00:13;96797.72;;;16.29;50.55
17209;BME280;8720;48.488;9.202;2023-05-01T06:02:48;96803.88;;;16.30;50.50
17209;BME280;8720;48.488;9.202;2023-05-01T06:05:16;96807.38;;;16.30;50.35
17209;BME280;8720;48.488;9.202;2023-05-01T06:07:44;96801.22;;;16.30;50.30
17209;BME280;8720;48.488;9.202;2023-05-01T06:10:11;96804.72;;;16.30;50.35
17209;BME280;8720;48.488;9.202;2023-05-01T06:12:39;96806.44;;;16.31;50.57
17209;BME280;8720;48.488;9.202;2023-05-01T06:15:08;96798.44;;;16.33;50.50
17209;BME280;8720;48.488;9.202;2023-05-01T06:17:41;96801.09;;;16.33;50.29
17209;BME280;8720;48.488;9.202;2023-05-01T06:20:12;96806.28;;;16.34;50.77
17209;BME280;8720;48.488;9.202;2023-05-01T06:22:40;96803.56;;;16.36;50.77
17209;BME280;8720;48.488;9.202;2023-05-01T06:25:21;96793.16;;;16.33;50.49
17209;BME280;8720;48.488;9.202;2023-05-01T06:27:49;96802.56;;;16.38;50.65
17209;BME280;8720;48.488;9.202;2023-05-01T06:30:19;96805.13;;;16.40;50.79
17209;BME280;8720;48.488;9.202;2023-05-01T06:32:47;96803.25;;;16.42;50.55
17209;BME280;8720;48.488;9.202;2023-05-01T06:35:16;96805.81;;;16.44;50.97
17209;BME280;8720;48.488;9.202;2023-05-01T06:37:44;96805.69;;;16.47;50.93
17209;BME280;8720;48.488;9.202;2023-05-01T06:40:12;96801.13;;;16.50;51.06
17209;BME280;8720;48.488;9.202;2023-05-01T06:42:39;96808.78;;;16.55;51.08
17209;BME280;8720;48.488;9.202;2023-05-01T06:45:07;96805.94;;;16.59;51.09
17209;BME280;8720;48.488;9.202;2023-05-01T06:47:35;96805.72;;;16.64;50.80
17209;BME280;8720;48.488;9.202;2023-05-01T06:50:02;96805.41;;;16.70;51.18
17209;BME280;8720;48.488;9.202;2023-05-01T06:52:34;96809.56;;;16.74;50.90
17209;BME280;8720;48.488;9.202;2023-05-01T06:55:01;96804.28;;;16.74;50.94
17209;BME280;8720;48.488;9.202;2023-05-01T06:57:29;96815.16;;;16.85;50.97
17209;BME280;8720;48.488;9.202;2023-05-01T06:59:56;96813.22;;;16.88;51.04
17209;BME280;8720;48.488;9.202;2023-05-01T07:02:23;96814.75;;;16.92;51.25
17209;BME280;8720;48.488;9.202;2023-05-01T07:04:51;96816.31;;;16.96;51.31
17209;BME280;8720;48.488;9.202;2023-05-01T07:07:19;96817.00;;;17.00;51.29
17209;BME280;8720;48.488;9.202;2023-05-01T07:09:48;96818.56;;;17.04;51.10
17209;BME280;8720;48.488;9.202;2023-05-01T07:12:15;96822.84;;;17.06;51.22
17209;BME280;8720;48.488;9.202;2023-05-01T07:14:42;96819.16;;;17.09;51.19
17209;BME280;8720;48.488;9.202;2023-05-01T07:17:10;96816.28;;;17.13;51.14
17209;BME280;8720;48.488;9.202;2023-05-01T07:19:37;96823.13;;;17.17;51.19
17209;BME280;8720;48.488;9.202;2023-05-01T07:22:04;96820.28;;;17.20;51.24
17209;BME280;8720;48.488;9.202;2023-05-01T07:24:31;96822.19;;;17.51;51.08
17209;BME280;8720;48.488;9.202;2023-05-01T07:27:00;96824.00;;;17.51;50.73
17209;BME280;8720;48.488;9.202;2023-05-01T07:29:27;96820.31;;;17.53;50.68
17209;BME280;8720;48.488;9.202;2023-05-01T07:31:55;96817.31;;;17.59;50.81
17209;BME280;8720;48.488;9.202;2023-05-01T07:34:22;96816.13;;;17.65;50.84
17209;BME280;8720;48.488;9.202;2023-05-01T07:36:49;96823.66;;;17.72;50.56
17209;BME280;8720;48.488;9.202;2023-05-01T07:39:16;96818.97;;;17.77;50.56
17209;BME280;8720;48.488;9.202;2023-05-01T07:41:44;96812.47;;;17.83;50.44
17209;BME280;8720;48.488;9.202;2023-05-01T07:44:13;96804.34;;;17.86;49.82
17209;BME280;8720;48.488;9.202;2023-05-01T07:46:40;96810.41;;;17.88;49.80
17209;BME280;8720;48.488;9.202;2023-05-01T07:49:08;96818.19;;;17.91;50.12
17209;BME280;8720;48.488;9.202;2023-05-01T07:51:35;96823.31;;;17.94;49.95
17209;BME280;8720;48.488;9.202;2023-05-01T07:54:02;96811.72;;;17.96;49.74
17209;BME280;8720;48.488;9.202;2023-05-01T07:56:30;96812.56;;;17.97;49.47
17209;BME280;8720;48.488;9.202;2023-05-01T07:58:57;96813.41;;;17.97;49.40
17209;BME280;8720;48.488;9.202;2023-05-01T08:01:26;96808.88;;;17.99;49.55
17209;BME280;8720;48.488;9.202;2023-05-01T08:03:53;96814.84;;;18.03;49.68
17209;BME280;8720;48.488;9.202;2023-05-01T08:06:20;96811.19;;;18.05;50.02
17209;BME280;8720;48.488;9.202;2023-05-01T08:08:48;96811.03;;;18.08;49.84
17209;BME280;8720;48.488;9.202;2023-05-01T08:11:15;96817.75;;;18.14;50.12
17209;BME280;8720;48.488;9.202;2023-05-01T08:13:42;96814.00;;;18.18;50.06
17209;BME280;8720;48.488;9.202;2023-05-01T08:16:09;96811.94;;;18.23;50.13
17209;BME280;8720;48.488;9.202;2023-05-01T08:18:38;96806.38;;;18.28;49.67
17209;BME280;8720;48.488;9.202;2023-05-01T08:21:05;96807.13;;;18.30;49.61
17209;BME280;8720;48.488;9.202;2023-05-01T08:23:32;96813.00;;;18.35;49.96
17209;BME280;8720;48.488;9.202;2023-05-01T08:26:00;96803.75;;;18.42;50.04
17209;BME280;8720;48.488;9.202;2023-05-01T08:28:27;96807.63;;;18.52;49.85
17209;BME280;8720;48.488;9.202;2023-05-01T08:30:54;96809.66;;;18.62;49.89
17209;BME280;8720;48.488;9.202;2023-05-01T08:33:24;96808.13;;;18.72;49.69
17209;BME280;8720;48.488;9.202;2023-05-01T08:35:53;96809.97;;;18.86;49.79
17209;BME280;8720;48.488;9.202;2023-05-01T08:38:20;96808.38;;;18.97;49.38
17209;BME280;8720;48.488;9.202;2023-05-01T08:40:52;96804.88;;;19.11;49.64
17209;BME280;8720;48.488;9.202;2023-05-01T08:43:22;96808.31;;;19.27;49.21
17209;BME280;8720;48.488;9.202;2023-05-01T08:45:53;96807.00;;;19.48;49.21
17209;BME280;8720;48.488;9.202;2023-05-01T08:48:24;96811.94;;;19.68;49.38
17209;BME280;8720;48.488;9.202;2023-05-01T08:50:55;96805.34;;;19.88;48.77
17209;BME280;8720;48.488;9.202;2023-05-01T08:53:25;96808.59;;;20.06;48.79
17209;BME280;8720;48.488;9.202;2023-05-01T08:55:54;96817.22;;;20.23;48.69
17209;BME280;8720;48.488;9.202;2023-05-01T08:58:24;96811.97;;;20.36;48.28
17209;BME280;8720;48.488;9.202;2023-05-01T09:00:53;96805.09;;;20.46;47.85
17209;BME280;8720;48.488;9.202;2023-05-01T09:03:21;96808.63;;;20.59;47.59
17209;BME280;8720;48.488;9.202;2023-05-01T09:05:52;96802.91;;;20.77;47.81
17209;BME280;8720;48.488;9.202;2023-05-01T09:08:20;96792.31;;;20.90;47.49
17209;BME280;8720;48.488;9.202;2023-05-01T09:10:48;96796.63;;;21.05;47.62
17209;BME280;8720;48.488;9.202;2023-05-01T09:13:18;96793.53;;;21.24;47.29
17209;BME280;8720;48.488;9.202;2023-05-01T09:15:45;96797.88;;;21.37;47.11
17209;BME280;8720;48.488;9.202;2023-05-01T09:18:12;96801.47;;;21.49;46.92
17209;BME280;8720;48.488;9.202;2023-05-01T09:20:40;96794.56;;;21.59;46.67
17209;BME280;8720;48.488;9.202;2023-05-01T09:23:10;96799.63;;;21.75;46.56
17209;BME280;8720;48.488;9.202;2023-05-01T09:25:37;96803.03;;;21.89;46.22
17209;BME280;8720;48.488;9.202;2023-05-01T09:28:05;96795.53;;;22.07;45.94
17209;BME280;8720;48.488;9.202;2023-05-01T09:30:35;96795.25;;;22.22;45.85
17209;BME280;8720;48.488;9.202;2023-05-01T09:33:11;96800.06;;;22.41;45.33
17209;BME280;8720;48.488;9.202;2023-05-01T09:35:50;96793.53;;;22.58;45.51
17209;BME280;8720;48.488;9.202;2023-05-01T09:38:20;96797.81;;;22.71;45.33
17209;BME280;8720;48.488;9.202;2023-05-01T09:40:48;96791.53;;;22.83;44.19
17209;BME280;8720;48.488;9.202;2023-05-01T09:43:26;96791.22;;;22.99;44.40
17209;BME280;8720;48.488;9.202;2023-05-01T09:46:06;96789.53;;;23.09;43.83
17209;BME280;8720;48.488;9.202;2023-05-01T09:48:34;96784.22;;;23.20;43.91
17209;BME280;8720;48.488;9.202;2023-05-01T09:51:20;96777.78;;;23.22;43.71
17209;BME280;8720;48.488;9.202;2023-05-01T09:53:50;96773.47;;;23.32;43.42
17209;BME280;8720;48.488;9.202;2023-05-01T09:56:18;96780.00;;;23.39;43.27
17209;BME280;8720;48.488;9.202;2023-05-01T09:58:46;96776.00;;;23.45;43.22
17209;BME280;8720;48.488;9.202;2023-05-01T10:01:13;96780.16;;;23.60;42.50
17209;BME280;8720;48.488;9.202;2023-05-01T10:03:43;96769.34;;;23.62;42.91
17209;BME280;8720;48.488;9.202;2023-05-01T10:06:10;96780.88;;;23.73;42.62
17209;BME280;8720;48.488;9.202;2023-05-01T10:08:46;96768.13;;;23.66;42.04
17209;BME280;8720;48.488;9.202;2023-05-01T10:11:15;96776.50;;;23.72;41.75
17209;BME280;8720;48.488;9.202;2023-05-01T10:13:42;96780.00;;;23.73;42.11
17209;BME280;8720;48.488;9.202;2023-05-01T10:16:28;96774.06;;;23.69;41.91
17209;BME280;8720;48.488;9.202;2023-05-01T10:18:56;96781.59;;;23.75;41.54
17209;BME280;8720;48.488;9.202;2023-05-01T10:21:25;96785.00;;;23.77;41.47
17209;BME280;8720;48.488;9.202;2023-05-01T10:23:54;96776.84;;;23.79;41.14
17209;BME280;8720;48.488;9.202;2023-05-01T10:26:23;96775.88;;;23.80;40.83
17209;BME280;8720;48.488;9.202;2023-05-01T10:28:51;96775.16;;;23.78;41.28
17209;BME280;8720;48.488;9.202;2023-05-01T10:31:19;96778.81;;;23.77;40.96
17209;BME280;8720;48.488;9.202;2023-05-01T10:33:46;96777.59;;;23.81;40.95
17209;BME280;8720;48.488;9.202;2023-05-01T10:36:20;96780.72;;;23.86;41.12
17209;BME280;8720;48.488;9.202;2023-05-01T10:38:48;96783.75;;;23.92;40.97
17209;BME280;8720;48.488;9.202;2023-05-01T10:41:15;96780.09;;;23.93;40.84
17209;BME280;8720;48.488;9.202;2023-05-01T10:43:44;96777.56;;;24.03;40.11
17209;BME280;8720;48.488;9.202;2023-05-01T10:46:26;96781.31;;;24.00;40.32
17209;BME280;8720;48.488;9.202;2023-05-01T10:48:58;96775.13;;;24.00;40.10
17209;BME280;8720;48.488;9.202;2023-05-01T10:51:26;96777.06;;;23.98;39.78
17209;BME280;8720;48.488;9.202;2023-05-01T10:54:25;96768.81;;;23.90;40.58
17209;BME280;8720;48.488;9.202;2023-05-01T10:56:54;96775.16;;;23.89;40.13
17209;BME280;8720;48.488;9.202;2023-05-01T10:59:25;96768.94;;;23.88;39.90
17209;BME280;8720;48.488;9.202;2023-05-01T11:01:53;96763.25;;;23.82;40.09
17209;BME280;8720;48.488;9.202;2023-05-01T11:04:49;96763.63;;;23.77;40.79
17209;BME280;8720;48.488;9.202;2023-05-01T11:07:22;96775.16;;;23.78;41.02
17209;BME280;8720;48.488;9.202;2023-05-01T11:09:51;96726.00;;;23.47;41.38
17209;BME280;8720;48.488;9.202;2023-05-01T11:12:49;96771.28;;;23.60;41.66
17209;BME280;8720;48.488;9.202;2023-05-01T11:15:30;96773.97;;;23.49;41.60
17209;BME280;8720;48.488;9.202;2023-05-01T11:17:59;96775.66;;;23.38;42.18
17209;BME280;8720;48.488;9.202;2023-05-01T11:23:20;96772.91;;;23.16;42.55
17209;BME280;8720;48.488;9.202;2023-05-01T11:25:48;96766.25;;;23.11;42.50
17209;BME280;8720;48.488;9.202;2023-05-01T11:28:20;96767.44;;;23.07;43.10
17209;BME280;8720;48.488;9.202;2023-05-01T11:30:49;96770.38;;;23.04;42.88
17209;BME280;8720;48.488;9.202;2023-05-01T11:33:24;96768.66;;;23.03;42.99
17209;BME280;8720;48.488;9.202;2023-05-01T11:35:57;96772.66;;;22.97;42.74
17209;BME280;8720;48.488;9.202;2023-05-01T11:38:25;96765.63;;;22.96;42.84
17209;BME280;8720;48.488;9.202;2023-05-01T11:40:59;96771.19;;;22.93;42.80
17209;BME280;8720;48.488;9.202;2023-05-01T11:43:29;96760.50;;;22.93;42.75
17209;BME280;8720;48.488;9.202;2023-05-01T11:45:58;96763.19;;;22.93;43.02
17209;BME280;8720;48.488;9.202;2023-05-01T11:48:29;96771.06;;;22.95;42.40
17209;BME280;8720;48.488;9.202;2023-05-01T11:50:57;96773.63;;;22.96;42.23
17209;BME280;8720;48.488;9.202;2023-05-01T11:53:24;96763.44;;;23.01;42.72
17209;BME280;8720;48.488;9.202;2023-05-01T11:55:51;96762.00;;;23.08;42.22
17209;BME280;8720;48.488;9.202;2023-05-01T11:58:33;96771.25;;;23.15;42.16
17209;BME280;8720;48.488;9.202;2023-05-01T12:01:02;96764.69;;;23.19;41.78
17209;BME280;8720;48.488;9.202;2023-05-01T12:03:40;96753.63;;;23.24;42.14
17209;BME280;8720;48.488;9.202;2023-05-01T12:06:09;96761.28;;;23.28;42.07
17209;BME280;8720;48.488;9.202;2023-05-01T12:08:42;96759.13;;;23.33;41.46
17209;BME280;8720;48.488;9.202;2023-05-01T12:11:10;96756.97;;;23.38;41.30
17209;BME280;8720;48.488;9.202;2023-05-01T12:13:39;96755.03;;;23.40;41.31
17209;BME280;8720;48.488;9.202;2023-05-01T12:16:08;96753.91;;;23.43;41.06
17209;BME280;8720;48.488;9.202;2023-05-01T12:18:36;96750.75;;;23.49;41.08
17209;BME280;8720;48.488;9.202;2023-05-01T12:21:04;96755.38;;;23.58;40.83
17209;BME280;8720;48.488;9.202;2023-05-01T12:23:34;96744.31;;;23.63;40.99
17209;BME280;8720;48.488;9.202;2023-05-01T12:26:14;96755.47;;;23.79;40.70
17209;BME280;8720;48.488;9.202;2023-05-01T12:28:54;96756.19;;;23.92;40.71
17209;BME280;8720;48.488;9.202;2023-05-01T12:31:23;96751.56;;;24.05;40.44
17209;BME280;8720;48.488;9.202;2023-05-01T12:33:55;96748.88;;;24.16;40.29
17209;BME280;8720;48.488;9.202;2023-05-01T12:36:25;96747.53;;;24.21;39.82
17209;BME280;8720;48.488;9.202;2023-05-01T12:38:59;96740.09;;;24.25;39.45
17209;BME280;8720;48.488;9.202;2023-05-01T12:41:36;96730.00;;;24.28;39.58
17209;BME280;8720;48.488;9.202;2023-05-01T12:44:16;96730.41;;;24.45;39.32
17209;BME280;8720;48.488;9.202;2023-05-01T12:46:53;96728.78;;;24.53;39.47
17209;BME280;8720;48.488;9.202;2023-05-01T12:49:22;96727.03;;;24.63;38.93
17209;BME280;8720;48.488;9.202;2023-05-01T12:51:51;96735.03;;;24.74;38.85
17209;BME280;8720;48.488;9.202;2023-05-01T12:54:20;96729.88;;;24.82;38.57
17209;BME280;8720;48.488;9.202;2023-05-01T12:56:49;96732.03;;;24.88;38.01
17209;BME280;8720;48.488;9.202;2023-05-01T12:59:22;96727.41;;;24.90;37.68
17209;BME280;8720;48.488;9.202;2023-05-01T13:02:02;96724.44;;;24.93;38.02
17209;BME280;8720;48.488;9.202;2023-05-01T13:04:30;96720.66;;;24.96;37.79
17209;BME280;8720;48.488;9.202;2023-05-01T13:06:58;96712.06;;;24.92;37.54
17209;BME280;8720;48.488;9.202;2023-05-01T13:09:28;96715.25;;;24.86;37.02
17209;BME280;8720;48.488;9.202;2023-05-01T13:11:59;96717.94;;;24.86;37.48
17209;BME280;8720;48.488;9.202;2023-05-01T13:14:28;96705.66;;;24.84;37.23
17209;BME280;8720;48.488;9.202;2023-05-01T13:16:56;96697.19;;;24.79;37.08
17209;BME280;8720;48.488;9.202;2023-05-01T13:19:27;96693.66;;;24.78;37.18
17209;BME280;8720;48.488;9.202;2023-05-01T13:21:55;96690.25;;;24.76;36.99
17209;BME280;8720;48.488;9.202;2023-05-01T13:24:24;96680.03;;;24.70;37.03
17209;BME280;8720;48.488;9.202;2023-05-01T13:27:02;96692.69;;;24.79;36.68
17209;BME280;8720;48.488;9.202;2023-05-01T13:29:31;96690.59;;;24.83;37.34
17209;BME280;8720;48.488;9.202;2023-05-01T13:31:58;96684.44;;;24.92;36.92
17209;BME280;8720;48.488;9.202;2023-05-01T13:34:31;96686.44;;;24.99;37.15